Weather at Birmingham-Shuttlesworth International Airport

Public forecast

Using degrees Fahrenheit for public forecast. Weather courtesy of forecast.io.

Current aviation weather report (METAR) for Birmingham-Shuttlesworth International Airport

Retrieved 2021/09/23 13:53 UTC (1 hour ago):

KBHM 231353Z 35006KT 10SM CLR 16/11 A3012 RMK AO2 SLP195 T01560106

Aviation forecast (TAF) for Birmingham-Shuttlesworth International Airport

Retrieved 2021/09/23 12:24 UTC (2 hours ago):

TAF KBHM 231122Z 2312/2412 VRB03KT P6SM SKC FM231500 35010G16KT P6SM SKC FM240000 34005KT P6SM SKC